CPA206 EHAM-EDDF
Flight info
| Callsign | CPA206 |
|---|---|
| Flight time | N/A |
| Altitude | 35000 |
| Route | EDUPO Z739 MISGO DCT DIXAT DIXAT2C |
| Aircraft | B748/H-SDE3FGHIM1M2RWXY/LB1 |
Departure
| Time | 2026-04-28 09:18 |
|---|---|
| Airport | Amsterdam Airport Schiphol (EHAM) |
Arrival
| Time | N/A |
|---|---|
| Airport | Frankfurt Main Airport (EDDF) |
| Time | Latitude | Longitude | Altitude | Speed | Heading |
|---|---|---|---|---|---|
| 2026-04-28 08:34 | 52.29519 | 4.76205 | 4 ft | 0 kts | 148° |
| 2026-04-28 08:54 | 52.29516 | 4.76209 | 4 ft | 0 kts | 148° |
| 2026-04-28 08:54 | 52.29519 | 4.76206 | 4 ft | 0 kts | 148° |
| 2026-04-28 09:00 | 52.29523 | 4.76202 | 5 ft | 2 kts | 148° |
| 2026-04-28 09:00 | 52.29539 | 4.76186 | 5 ft | 3 kts | 155° |
| 2026-04-28 09:00 | 52.29557 | 4.76172 | 7 ft | 3 kts | 165° |
| 2026-04-28 09:01 | 52.29575 | 4.76165 | 6 ft | 3 kts | 179° |
| 2026-04-28 09:01 | 52.29593 | 4.76164 | 6 ft | 3 kts | 198° |
| 2026-04-28 09:01 | 52.29608 | 4.76171 | 5 ft | 3 kts | 223° |
| 2026-04-28 09:01 | 52.29615 | 4.76182 | 7 ft | 0 kts | 237° |
| 2026-04-28 09:02 | 52.29616 | 4.76182 | 7 ft | 0 kts | 237° |
| 2026-04-28 09:04 | 52.29612 | 4.76174 | 4 ft | 2 kts | 237° |
| 2026-04-28 09:04 | 52.29599 | 4.76140 | 4 ft | 5 kts | 237° |
| 2026-04-28 09:05 | 52.29573 | 4.76076 | 4 ft | 8 kts | 237° |
| 2026-04-28 09:05 | 52.29540 | 4.75992 | 4 ft | 9 kts | 239° |
| 2026-04-28 09:05 | 52.29513 | 4.75900 | 4 ft | 10 kts | 248° |
| 2026-04-28 09:05 | 52.29489 | 4.75783 | 4 ft | 12 kts | 248° |
| 2026-04-28 09:06 | 52.29452 | 4.75670 | 4 ft | 11 kts | 239° |
| 2026-04-28 09:06 | 52.29436 | 4.75623 | 4 ft | 0 kts | 246° |
| 2026-04-28 09:06 | 52.29433 | 4.75603 | 4 ft | 3 kts | 258° |
| 2026-04-28 09:06 | 52.29438 | 4.75566 | 4 ft | 4 kts | 289° |
| 2026-04-28 09:07 | 52.29454 | 4.75535 | 5 ft | 6 kts | 316° |
| 2026-04-28 09:07 | 52.29503 | 4.75481 | 3 ft | 11 kts | 327° |
| 2026-04-28 09:07 | 52.29574 | 4.75408 | 4 ft | 12 kts | 328° |
| 2026-04-28 09:07 | 52.29641 | 4.75341 | 4 ft | 11 kts | 329° |
| 2026-04-28 09:08 | 52.29707 | 4.75283 | 4 ft | 11 kts | 338° |
| 2026-04-28 09:08 | 52.29775 | 4.75268 | 4 ft | 9 kts | 353° |
| 2026-04-28 09:08 | 52.29822 | 4.75229 | 4 ft | 7 kts | 319° |
| 2026-04-28 09:08 | 52.29859 | 4.75159 | 4 ft | 10 kts | 310° |
| 2026-04-28 09:09 | 52.29913 | 4.75060 | 4 ft | 14 kts | 311° |
| 2026-04-28 09:09 | 52.29986 | 4.74930 | 4 ft | 17 kts | 314° |
| 2026-04-28 09:09 | 52.30061 | 4.74787 | 6 ft | 16 kts | 311° |
| 2026-04-28 09:09 | 52.30133 | 4.74652 | 9 ft | 15 kts | 310° |
| 2026-04-28 09:10 | 52.30193 | 4.74543 | 13 ft | 11 kts | 313° |
| 2026-04-28 09:10 | 52.30245 | 4.74448 | 14 ft | 12 kts | 310° |
| 2026-04-28 09:10 | 52.30312 | 4.74322 | 8 ft | 18 kts | 311° |
| 2026-04-28 09:10 | 52.30386 | 4.74203 | 4 ft | 13 kts | 328° |
| 2026-04-28 09:11 | 52.30462 | 4.74193 | 4 ft | 11 kts | 4° |
| 2026-04-28 09:11 | 52.30543 | 4.74200 | 4 ft | 13 kts | 3° |
| 2026-04-28 09:11 | 52.30638 | 4.74210 | 4 ft | 15 kts | 3° |
| 2026-04-28 09:11 | 52.30751 | 4.74221 | 4 ft | 18 kts | 3° |
| 2026-04-28 09:12 | 52.30882 | 4.74232 | 4 ft | 19 kts | 4° |
| 2026-04-28 09:12 | 52.30995 | 4.74245 | 4 ft | 12 kts | 4° |
| 2026-04-28 09:12 | 52.31039 | 4.74249 | 4 ft | 4 kts | 3° |
| 2026-04-28 09:12 | 52.31139 | 4.74258 | 4 ft | 18 kts | 3° |
| 2026-04-28 09:13 | 52.31255 | 4.74268 | 4 ft | 16 kts | 2° |
| 2026-04-28 09:13 | 52.31352 | 4.74277 | 4 ft | 12 kts | 7° |
| 2026-04-28 09:13 | 52.31392 | 4.74329 | 4 ft | 6 kts | 68° |
| 2026-04-28 09:13 | 52.31396 | 4.74438 | 4 ft | 13 kts | 88° |
| 2026-04-28 09:14 | 52.31400 | 4.74575 | 4 ft | 12 kts | 87° |
| 2026-04-28 09:14 | 52.31424 | 4.74660 | 4 ft | 6 kts | 31° |
| 2026-04-28 09:14 | 52.31479 | 4.74671 | 4 ft | 11 kts | 351° |
| 2026-04-28 09:14 | 52.31547 | 4.74660 | 4 ft | 0 kts | 356° |
| 2026-04-28 09:16 | 52.31564 | 4.74659 | 4 ft | 3 kts | 357° |
| 2026-04-28 09:16 | 52.31587 | 4.74657 | 5 ft | 4 kts | 357° |
| 2026-04-28 09:16 | 52.31639 | 4.74669 | 5 ft | 10 kts | 12° |
| 2026-04-28 09:17 | 52.31666 | 4.74714 | 5 ft | 6 kts | 72° |
| 2026-04-28 09:17 | 52.31669 | 4.74748 | 5 ft | 0 kts | 84° |
| 2026-04-28 09:17 | 52.31670 | 4.74759 | 5 ft | 5 kts | 84° |
| 2026-04-28 09:17 | 52.31685 | 4.75152 | 3 ft | 69 kts | 86° |
| 2026-04-28 09:18 | 52.31721 | 4.76274 | 5 ft | 126 kts | 87° |
| 2026-04-28 09:18 | 52.31763 | 4.77942 | 110 ft | 160 kts | 84° |
| 2026-04-28 09:18 | 52.31831 | 4.79834 | 566 ft | 175 kts | 83° |
| 2026-04-28 09:18 | 52.31926 | 4.81969 | 925 ft | 195 kts | 83° |
| 2026-04-28 09:19 | 52.32007 | 4.84254 | 1508 ft | 203 kts | 86° |
| 2026-04-28 09:19 | 52.32010 | 4.86577 | 2179 ft | 211 kts | 99° |
| 2026-04-28 09:19 | 52.31500 | 4.88913 | 2584 ft | 227 kts | 110° |
| 2026-04-28 09:19 | 52.30857 | 4.91322 | 3089 ft | 234 kts | 111° |
| 2026-04-28 09:20 | 52.30197 | 4.93797 | 3662 ft | 242 kts | 110° |
| 2026-04-28 09:20 | 52.29538 | 4.96337 | 4633 ft | 244 kts | 105° |
| 2026-04-28 09:20 | 52.29078 | 4.99014 | 5567 ft | 247 kts | 103° |
| 2026-04-28 09:20 | 52.28608 | 5.01738 | 6455 ft | 251 kts | 104° |
| 2026-04-28 09:21 | 52.28124 | 5.04495 | 7241 ft | 255 kts | 104° |
| 2026-04-28 09:21 | 52.27634 | 5.07293 | 8016 ft | 257 kts | 105° |
| 2026-04-28 09:21 | 52.27140 | 5.10129 | 8719 ft | 261 kts | 105° |
| 2026-04-28 09:21 | 52.26640 | 5.13003 | 9544 ft | 264 kts | 105° |
| 2026-04-28 09:22 | 52.26305 | 5.14924 | 10047 ft | 267 kts | 106° |
| 2026-04-28 09:22 | 52.25780 | 5.17908 | 10509 ft | 281 kts | 106° |